ADDS METAR Data INFO
IDs: Format: Raw Decoded Include TAF

Data at: 0108 UTC 24 Jun 2018

KVVV 240055Z AUTO 14005KT 10SM SCT050 BKN100 24/17 A2971 RMK AO2 LTG DSNT SW AND W
KVVV 240035Z AUTO 14007KT 10SM SCT050 SCT100 24/16 A2971 RMK AO2
KVVV 240015Z AUTO 15004KT 10SM SCT100 25/15 A2971 RMK AO2
KVVV 232355Z AUTO 17007KT 10SM SCT100 25/16 A2970 RMK AO2
KVVV 232335Z AUTO 17008KT 10SM SCT100 26/15 A2970 RMK AO2
KVVV 232315Z AUTO 17010G15KT 10SM SCT100 27/14 A2970 RMK AO2
KVVV 232255Z AUTO 16007G14KT 10SM CLR 27/15 A2970 RMK AO2
KVVV 232235Z AUTO 17010KT 10SM CLR 26/15 A2970 RMK AO2
KVVV 232215Z AUTO 18011G15KT 10SM SCT049 26/15 A2971 RMK AO2
KVVV 232155Z AUTO 16007G15KT 10SM SCT080 27/16 A2971 RMK AO2
KVVV 232135Z AUTO 17010G14KT 10SM SCT060 SCT080 26/15 A2970 RMK AO2
KVVV 232115Z AUTO 16006G14KT 10SM SCT050 SCT060 26/14 A2970 RMK AO2
KVVV 232055Z AUTO 16007KT 116V176 10SM SCT050 27/15 A2971 RMK AO2
KVVV 232035Z AUTO 16010G15KT 10SM SCT050 27/14 A2971 RMK AO2
KVVV 232015Z AUTO 17009G16KT 10SM SCT050 27/14 A2971 RMK AO2
KVVV 231955Z AUTO 15007KT 10SM SCT047 27/15 A2972 RMK AO2
KVVV 231936Z AUTO 17011KT 10SM CLR 27/14 A2972 RMK AO2
KVVV 231915Z AUTO 17009G14KT 10SM CLR 27/14 A2973 RMK AO2
KVVV 231855Z AUTO 16010G15KT 10SM CLR 27/13 A2973 RMK AO2
KVVV 231836Z AUTO 17008KT 10SM CLR 26/13 A2974 RMK AO2
KVVV 231815Z AUTO 17008G15KT 10SM CLR 26/14 A2974 RMK AO2
KVVV 231755Z AUTO 16009G16KT 10SM CLR 26/14 A2974 RMK AO2 LTG DSNT SW
KVVV 231736Z AUTO 16008KT 10SM SCT049 26/14 A2975 RMK AO2
KVVV 231715Z AUTO 18009KT 10SM SCT049 25/14 A2975 RMK AO2
KVVV 231655Z AUTO 17007KT 10SM CLR 26/14 A2975 RMK AO2
KVVV 231636Z AUTO 18006KT 10SM CLR 25/15 A2975 RMK AO2
KVVV 231615Z AUTO 17007KT 10SM CLR 25/16 A2976 RMK AO2
KVVV 231555Z AUTO 17007KT 10SM CLR 24/16 A2976 RMK AO2
KVVV 231535Z AUTO 16006KT 10SM CLR 24/16 A2976 RMK AO2
KVVV 231516Z AUTO 18007KT 10SM CLR 23/16 A2975 RMK AO2
KVVV 231515Z AUTO 18007KT 10SM CLR 23/16 A2975 RMK AO2
KVVV 231455Z AUTO 18006KT 10SM CLR 23/17 A2976 RMK AO2
KVVV 231435Z AUTO 17005KT 10SM CLR 22/17 A2975 RMK AO2
KVVV 231416Z AUTO 15003KT 10SM CLR 21/17 A2976 RMK AO2
KVVV 231415Z AUTO 16003KT 10SM CLR 21/17 A2976 RMK AO2
KVVV 231355Z AUTO 17005KT 10SM CLR 21/16 A2976 RMK AO2
KVVV 231335Z AUTO 18004KT 10SM CLR 21/17 A2975 RMK AO2
KVVV 231316Z AUTO 17003KT 10SM CLR 19/17 A2975 RMK AO2
KVVV 231315Z AUTO 17004KT 10SM CLR 19/17 A2975 RMK AO2
KVVV 231255Z AUTO 16004KT 10SM CLR 18/16 A2975 RMK AO2
KVVV 231235Z AUTO 14003KT 10SM CLR 18/16 A2975 RMK AO2
KVVV 231216Z AUTO 14003KT 10SM CLR 17/16 A2976 RMK AO2
KVVV 231215Z AUTO 14003KT 10SM CLR 17/16 A2976 RMK AO2
KVVV 231155Z AUTO 00000KT 10SM CLR 17/16 A2976 RMK AO2
KVVV 231135Z AUTO 13003KT 10SM CLR 17/15 A2976 RMK AO2
KVVV 231116Z AUTO 13004KT 7SM CLR 16/15 A2976 RMK AO2
KVVV 231115Z AUTO 13004KT 7SM CLR 16/15 A2976 RMK AO2
KVVV 231055Z AUTO 15004KT 10SM CLR 16/15 A2976 RMK AO2
KVVV 231035Z AUTO 16004KT 10SM CLR 16/15 A2975 RMK AO2
KVVV 231016Z AUTO 15003KT 10SM CLR 16/15 A2975 RMK AO2
KVVV 231015Z AUTO 15003KT 10SM CLR 16/15 A2975 RMK AO2
KVVV 230955Z AUTO 16003KT 10SM CLR 17/15 A2975 RMK AO2
KVVV 230935Z AUTO 17003KT 10SM CLR 17/15 A2975 RMK AO2
KVVV 230916Z AUTO 17003KT 10SM CLR 17/15 A2975 RMK AO2
KVVV 230915Z AUTO 17003KT 10SM CLR 17/15 A2975 RMK AO2
KVVV 230855Z AUTO 15003KT 10SM CLR 17/16 A2976 RMK AO2
KVVV 230835Z AUTO 15003KT 10SM CLR 17/16 A2976 RMK AO2
KVVV 230816Z AUTO 15003KT 10SM CLR 17/16 A2976 RMK AO2
KVVV 230815Z AUTO 15003KT 10SM CLR 17/16 A2976 RMK AO2
KVVV 230755Z AUTO 00000KT 10SM CLR 18/16 A2977 RMK AO2
KVVV 230735Z AUTO 00000KT 10SM CLR 18/16 A2977 RMK AO2
KVVV 230715Z AUTO 19004KT 10SM CLR 18/16 A2977 RMK AO2
KVVV 230655Z AUTO 19003KT 10SM CLR 18/16 A2978 RMK AO2
KVVV 230635Z AUTO 19003KT 10SM CLR 19/16 A2978 RMK AO2 LTG DSNT S
KVVV 230615Z AUTO 18004KT 10SM CLR 19/16 A2978 RMK AO2
KVVV 230555Z AUTO 17004KT 10SM SCT055 19/16 A2979 RMK AO2
KVVV 230535Z AUTO 17004KT 10SM SCT055 SCT075 19/17 A2979 RMK AO2
KVVV 230515Z AUTO 17004KT 10SM SCT075 19/17 A2979 RMK AO2
KVVV 230455Z AUTO 16004KT 10SM CLR 19/16 A2978 RMK AO2
KVVV 230435Z AUTO 14004KT 10SM CLR 19/16 A2978 RMK AO2
KVVV 230415Z AUTO 14004KT 10SM CLR 20/16 A2978 RMK AO2
KVVV 230355Z AUTO 16003KT 10SM CLR 20/16 A2979 RMK AO2
KVVV 230336Z AUTO 15004KT 10SM CLR 21/17 A2979 RMK AO2
KVVV 230315Z AUTO 14004KT 10SM CLR 21/17 A2977 RMK AO2
KVVV 230255Z AUTO 14005KT 10SM CLR 21/17 A2976 RMK AO2
KVVV 230236Z AUTO 14005KT 10SM CLR 22/17 A2976 RMK AO2
KVVV 230215Z AUTO 15003KT 10SM CLR 23/17 A2977 RMK AO2
KVVV 230155Z AUTO 15004KT 10SM CLR 23/16 A2977 RMK AO2
KVVV 230135Z AUTO 15003KT 10SM CLR 24/16 A2977 RMK AO2
KVVV 230115Z AUTO 17005KT 10SM CLR 25/16 A2977 RMK AO2
KVVV 230055Z AUTO 15004KT 10SM CLR 26/16 A2977 RMK AO2
KVVV 230036Z AUTO 17003KT 10SM CLR 26/16 A2977 RMK AO2
KVVV 230015Z AUTO 15003KT 10SM CLR 26/16 A2977 RMK AO2
KVVV 222355Z AUTO 14003KT 10SM CLR 26/16 A2977 RMK AO2
KVVV 222336Z AUTO 17004KT 10SM CLR 26/14 A2978 RMK AO2
KVVV 222315Z AUTO 15004KT 10SM CLR 27/14 A2978 RMK AO2
KVVV 222256Z AUTO 14004KT 10SM CLR 26/12 A2979 RMK AO2 LTG DSNT W
KVVV 222255Z AUTO 14005KT 10SM CLR 26/12 A2979 RMK AO2 LTG DSNT W
KVVV 222235Z AUTO 13007KT 10SM CLR 27/12 A2980 RMK AO2
KVVV 222215Z AUTO 15004KT 10SM CLR 27/12 A2981 RMK AO2
KVVV 222156Z AUTO 16005KT 10SM CLR 27/12 A2982 RMK AO2
KVVV 222155Z AUTO 16005KT 10SM CLR 27/12 A2982 RMK AO2
KVVV 222135Z AUTO 18005KT 10SM CLR 27/11 A2983 RMK AO2
KVVV 222115Z AUTO 00000KT 10SM CLR 27/09 A2983 RMK AO2
KVVV 222056Z AUTO 13003KT 10SM CLR 27/11 A2983 RMK AO2
KVVV 222055Z AUTO 14004KT 10SM CLR 27/11 A2983 RMK AO2
KVVV 222035Z AUTO 12003KT 10SM CLR 27/13 A2984 RMK AO2
KVVV 222015Z AUTO 00000KT 10SM CLR 26/14 A2985 RMK AO2
KVVV 221956Z AUTO 18003KT 10SM CLR 26/13 A2985 RMK AO2
KVVV 221955Z AUTO 00000KT 10SM CLR 26/13 A2985 RMK AO2
KVVV 221935Z AUTO 00000KT 10SM CLR 26/13 A2986 RMK AO2
KVVV 221915Z AUTO 15003KT 10SM CLR 26/14 A2986 RMK AO2
KVVV 221856Z AUTO 00000KT 10SM CLR 26/12 A2986 RMK AO2
KVVV 221855Z AUTO 00000KT 10SM CLR 26/12 A2986 RMK AO2
KVVV 221835Z AUTO 00000KT 10SM CLR 25/11 A2987 RMK AO2
KVVV 221815Z AUTO 00000KT 10SM CLR 26/11 A2987 RMK AO2
KVVV 221755Z AUTO 21003KT 10SM CLR 25/11 A2988 RMK AO2
KVVV 221735Z AUTO 17004KT 10SM CLR 25/11 A2988 RMK AO2
KVVV 221716Z AUTO 18005KT 10SM CLR 25/13 A2989 RMK AO2
KVVV 221715Z AUTO 19004KT 10SM CLR 25/13 A2989 RMK AO2
KVVV 221655Z AUTO 00000KT 10SM CLR 24/07 A2988 RMK AO2
KVVV 221635Z AUTO 10004KT 10SM CLR 25/11 A2989 RMK AO2
KVVV 221616Z AUTO 00000KT 10SM CLR 25/11 A2989 RMK AO2
KVVV 221615Z AUTO 00000KT 10SM CLR 25/11 A2989 RMK AO2
KVVV 221555Z AUTO 05004KT 10SM CLR 25/13 A2989 RMK AO2
KVVV 221535Z AUTO 00000KT 10SM CLR 24/14 A2989 RMK AO2
KVVV 221516Z AUTO 10003KT 10SM CLR 23/15 A2990 RMK AO2
KVVV 221515Z AUTO 11003KT 10SM CLR 23/15 A2990 RMK AO2
KVVV 221455Z AUTO 00000KT 10SM CLR 22/16 A2990 RMK AO2
KVVV 221435Z AUTO 00000KT 10SM CLR 22/16 A2991 RMK AO2
KVVV 221415Z AUTO 16003KT 10SM CLR 21/16 A2990 RMK AO2
KVVV 221355Z AUTO 10004KT 10SM CLR 20/16 A2990 RMK AO2
KVVV 221335Z AUTO 09003KT 10SM CLR 19/15 A2991 RMK AO2
KVVV 221315Z AUTO 08005KT 10SM CLR 18/15 A2990 RMK AO2